createdAt,value
2022-12-27T00:02:21.704Z,8.60
2022-12-27T00:04:48.515Z,8.20
2022-12-27T00:07:15.127Z,8.17
2022-12-27T00:09:42.041Z,6.93
2022-12-27T00:12:09.183Z,7.63
2022-12-27T00:14:35.897Z,7.13
2022-12-27T00:17:02.660Z,7.00
2022-12-27T00:19:29.312Z,7.07
2022-12-27T00:21:55.928Z,6.43
2022-12-27T00:24:22.666Z,6.17
2022-12-27T00:26:49.226Z,5.50
2022-12-27T00:29:15.845Z,5.53
2022-12-27T00:31:42.526Z,6.03
2022-12-27T00:34:09.295Z,6.17
2022-12-27T00:36:36.003Z,7.33
2022-12-27T00:39:03.688Z,7.03
2022-12-27T00:41:30.468Z,7.37
2022-12-27T00:43:57.121Z,6.90
2022-12-27T00:46:23.780Z,6.93
2022-12-27T00:48:50.524Z,7.50
2022-12-27T00:51:20.326Z,6.97
2022-12-27T00:53:47.728Z,8.43
2022-12-27T00:56:19.071Z,7.40
2022-12-27T00:58:46.256Z,7.90
2022-12-27T01:01:18.605Z,6.73
2022-12-27T01:03:46.099Z,9.20
2022-12-27T01:06:17.117Z,10.50
2022-12-27T01:08:44.445Z,9.27
2022-12-27T01:11:11.886Z,10.10
2022-12-27T01:13:39.590Z,9.50
2022-12-27T01:16:16.851Z,10.37
2022-12-27T01:18:45.233Z,9.63
2022-12-27T01:21:14.256Z,9.83
2022-12-27T01:23:41.965Z,10.10
2022-12-27T01:26:13.031Z,13.10
2022-12-27T01:28:39.844Z,13.10
2022-12-27T01:31:15.158Z,13.27
2022-12-27T01:33:42.185Z,13.90
2022-12-27T01:36:13.235Z,15.63
2022-12-27T01:38:42.668Z,12.83
2022-12-27T01:41:33.735Z,11.93
2022-12-27T01:44:00.435Z,11.50
2022-12-27T01:46:29.011Z,12.93
2022-12-27T01:48:55.948Z,12.20
2022-12-27T01:51:22.692Z,10.93
2022-12-27T01:53:51.746Z,10.70
2022-12-27T01:56:27.679Z,11.63
2022-12-27T01:59:00.317Z,8.10
2022-12-27T02:01:42.163Z,8.67
2022-12-27T02:04:26.572Z,9.13
2022-12-27T02:06:53.277Z,10.33
2022-12-27T02:09:27.814Z,10.57
2022-12-27T02:11:57.044Z,9.23
2022-12-27T02:14:28.679Z,8.03
2022-12-27T02:16:58.360Z,7.27
2022-12-27T02:19:41.895Z,7.43
2022-12-27T02:22:57.265Z,7.07
2022-12-27T02:25:52.798Z,6.73
2022-12-27T02:28:31.757Z,5.50
2022-12-27T02:31:08.026Z,7.07
2022-12-27T02:33:38.930Z,6.43
2022-12-27T02:36:13.163Z,7.10
2022-12-27T02:38:44.794Z,6.43
2022-12-27T02:41:30.975Z,6.27
2022-12-27T02:44:17.319Z,6.13
2022-12-27T02:47:03.369Z,6.20
2022-12-27T02:50:00.314Z,5.43
2022-12-27T02:52:57.534Z,5.13
2022-12-27T02:56:05.012Z,7.03
2022-12-27T02:59:07.851Z,5.00
2022-12-27T03:02:05.784Z,7.33
2022-12-27T03:04:47.688Z,6.40
2022-12-27T03:07:23.150Z,6.40
2022-12-27T03:10:29.822Z,5.20
2022-12-27T03:13:57.194Z,6.33
2022-12-27T03:16:25.726Z,6.30
2022-12-27T03:18:57.416Z,5.80
2022-12-27T03:21:59.626Z,5.70
2022-12-27T03:24:53.583Z,6.67
2022-12-27T03:27:32.081Z,5.73
2022-12-27T03:30:18.989Z,5.27
2022-12-27T03:33:15.900Z,6.10
2022-12-27T03:36:13.823Z,5.87
2022-12-27T03:38:56.052Z,5.50
2022-12-27T03:41:54.696Z,5.97
2022-12-27T03:44:24.556Z,5.57
2022-12-27T03:47:00.180Z,5.77
2022-12-27T03:49:38.937Z,6.70
2022-12-27T03:52:16.018Z,5.50
2022-12-27T03:54:45.975Z,5.23
2022-12-27T03:57:19.503Z,6.13
2022-12-27T03:59:46.297Z,5.03
2022-12-27T04:02:13.238Z,5.50
2022-12-27T04:04:39.887Z,6.00
2022-12-27T04:07:06.723Z,5.70
2022-12-27T04:09:52.259Z,5.63
2022-12-27T04:12:37.835Z,7.30
2022-12-27T04:15:23.179Z,5.80
2022-12-27T04:18:08.372Z,7.57
2022-12-27T04:20:53.828Z,6.97
2022-12-27T04:23:39.370Z,7.67
2022-12-27T04:26:24.825Z,7.20
2022-12-27T04:29:10.292Z,6.77
2022-12-27T04:31:55.704Z,5.80
2022-12-27T04:34:40.768Z,7.47
2022-12-27T04:37:08.259Z,4.67
2022-12-27T04:39:35.646Z,4.90
2022-12-27T04:42:20.611Z,5.40
2022-12-27T04:45:10.189Z,6.97
2022-12-27T04:47:58.450Z,5.60
2022-12-27T04:50:50.027Z,5.97
2022-12-27T04:53:38.104Z,5.27
2022-12-27T04:56:05.903Z,5.63
2022-12-27T04:58:33.445Z,5.23
2022-12-27T05:01:21.257Z,5.27
2022-12-27T05:03:51.563Z,5.47
2022-12-27T05:06:18.955Z,5.63
2022-12-27T05:09:04.407Z,5.87
2022-12-27T05:11:49.358Z,5.80
2022-12-27T05:14:16.041Z,4.90
2022-12-27T05:16:44.106Z,6.23
2022-12-27T05:19:13.603Z,6.53
2022-12-27T05:22:05.220Z,5.20
2022-12-27T05:24:50.964Z,5.87
2022-12-27T05:27:17.981Z,5.97
2022-12-27T05:29:44.607Z,6.00
2022-12-27T05:32:13.653Z,5.70
2022-12-27T05:34:40.955Z,6.57
2022-12-27T05:37:07.728Z,6.47
2022-12-27T05:39:34.348Z,6.90
2022-12-27T05:42:00.981Z,6.20
2022-12-27T05:44:27.592Z,6.83
2022-12-27T05:46:55.138Z,5.83
2022-12-27T05:49:22.235Z,5.63
2022-12-27T05:51:48.867Z,6.37
2022-12-27T05:54:15.595Z,7.80
2022-12-27T05:56:42.252Z,8.00
2022-12-27T05:59:08.995Z,7.00
2022-12-27T06:01:35.777Z,7.63
2022-12-27T06:04:02.742Z,5.27
2022-12-27T06:06:29.623Z,7.77
2022-12-27T06:08:56.253Z,6.10
2022-12-27T06:11:22.945Z,6.67
2022-12-27T06:13:54.166Z,7.07
2022-12-27T06:16:22.264Z,7.07
2022-12-27T06:18:49.052Z,7.23
2022-12-27T06:21:18.451Z,6.80
2022-12-27T06:23:46.139Z,7.53
2022-12-27T06:26:16.701Z,8.00
2022-12-27T06:28:43.509Z,6.10
2022-12-27T06:31:10.933Z,7.90
2022-12-27T06:33:38.362Z,8.57
2022-12-27T06:36:10.376Z,7.83
2022-12-27T06:38:37.612Z,7.60
2022-12-27T06:41:06.576Z,7.90
2022-12-27T06:43:33.727Z,7.73
2022-12-27T06:46:02.558Z,6.47
2022-12-27T06:48:30.334Z,6.67
2022-12-27T06:50:57.008Z,7.03
2022-12-27T06:53:23.894Z,6.90
2022-12-27T06:55:50.592Z,5.50
2022-12-27T06:58:17.232Z,6.10
2022-12-27T07:00:43.979Z,8.20
2022-12-27T07:03:10.696Z,8.50
2022-12-27T07:05:38.255Z,7.47
2022-12-27T07:08:05.376Z,7.20
2022-12-27T07:10:32.310Z,6.10
2022-12-27T07:12:59.438Z,5.10
2022-12-27T07:15:26.102Z,5.77
2022-12-27T07:17:52.791Z,7.67
2022-12-27T07:20:19.427Z,9.87
2022-12-27T07:22:46.111Z,7.23
2022-12-27T07:25:12.860Z,6.13
2022-12-27T07:27:39.481Z,7.00
2022-12-27T07:30:06.697Z,10.80
2022-12-27T07:32:33.327Z,9.03
2022-12-27T07:35:00.121Z,13.07
2022-12-27T07:37:26.730Z,13.63
2022-12-27T07:39:53.287Z,12.47
2022-12-27T07:42:19.908Z,12.67
2022-12-27T07:44:46.501Z,12.93
2022-12-27T07:47:13.201Z,13.13
2022-12-27T07:49:39.908Z,12.17
2022-12-27T07:52:06.578Z,13.63
2022-12-27T07:54:33.269Z,13.40
2022-12-27T07:56:59.933Z,14.50
2022-12-27T07:59:27.610Z,11.03
2022-12-27T08:02:06.951Z,12.80
2022-12-27T08:04:37.126Z,11.37
2022-12-27T08:07:18.730Z,13.07
2022-12-27T08:09:47.187Z,13.97
2022-12-27T08:12:14.789Z,14.53
2022-12-27T08:14:41.975Z,17.37
2022-12-27T08:17:30.700Z,17.00
2022-12-27T08:19:57.364Z,15.00
2022-12-27T08:22:24.709Z,16.77
2022-12-27T08:24:51.399Z,16.93
2022-12-27T08:27:24.737Z,15.90
2022-12-27T08:29:51.435Z,14.43
2022-12-27T08:32:18.079Z,15.73
2022-12-27T08:34:44.681Z,16.63
2022-12-27T08:37:11.284Z,14.97
2022-12-27T08:39:42.977Z,18.37
2022-12-27T08:42:13.393Z,17.60
2022-12-27T08:44:39.969Z,17.90
2022-12-27T08:47:06.611Z,19.97
2022-12-27T08:49:33.327Z,15.53
2022-12-27T08:51:59.885Z,13.27
2022-12-27T08:54:26.591Z,14.50
2022-12-27T08:56:53.182Z,13.97
2022-12-27T08:59:19.803Z,12.40
2022-12-27T09:01:46.568Z,13.63
2022-12-27T09:04:13.243Z,11.90
2022-12-27T09:06:40.846Z,11.50
2022-12-27T09:09:07.665Z,10.47
2022-12-27T09:11:35.058Z,9.40
2022-12-27T09:14:04.306Z,10.37
2022-12-27T09:16:32.914Z,10.87
2022-12-27T09:19:00.569Z,13.33
2022-12-27T09:21:30.152Z,11.97
2022-12-27T09:23:58.236Z,12.70
2022-12-27T09:26:27.689Z,11.57
2022-12-27T09:28:55.389Z,11.00
2022-12-27T09:31:23.434Z,10.70
2022-12-27T09:33:50.417Z,10.50
2022-12-27T09:36:19.901Z,10.67
2022-12-27T09:38:47.755Z,10.97
2022-12-27T09:42:34.237Z,10.37
2022-12-27T09:45:00.902Z,10.47
2022-12-27T09:47:30.159Z,11.93
2022-12-27T09:50:02.833Z,11.00
2022-12-27T09:52:42.580Z,11.90
2022-12-27T09:55:43.256Z,12.50
2022-12-27T09:58:34.026Z,10.53
2022-12-27T10:01:03.623Z,11.47
2022-12-27T10:03:35.901Z,11.50
2022-12-27T10:06:29.538Z,14.87
2022-12-27T10:09:28.609Z,13.40
2022-12-27T10:12:16.882Z,14.53
2022-12-27T10:14:43.433Z,11.73
2022-12-27T10:17:27.881Z,13.17
2022-12-27T10:20:18.111Z,13.10
2022-12-27T10:22:52.809Z,13.53
2022-12-27T10:25:23.284Z,13.27
2022-12-27T10:27:53.601Z,13.17
2022-12-27T10:30:22.276Z,13.90
2022-12-27T10:32:49.815Z,14.03
2022-12-27T10:35:18.920Z,14.47
2022-12-27T10:37:47.284Z,14.40
2022-12-27T10:40:22.829Z,14.83
2022-12-27T10:43:04.528Z,15.17
2022-12-27T10:45:42.723Z,15.33
2022-12-27T10:48:22.973Z,16.37
2022-12-27T10:50:55.308Z,17.13
2022-12-27T10:53:45.110Z,17.30
2022-12-27T10:56:25.034Z,17.03
2022-12-27T10:58:58.833Z,19.00
2022-12-27T11:01:30.524Z,18.13
2022-12-27T11:04:21.936Z,19.90
2022-12-27T11:07:13.395Z,21.70
2022-12-27T11:09:50.637Z,19.93
2022-12-27T11:12:24.257Z,20.37
2022-12-27T11:14:53.799Z,18.00
2022-12-27T11:17:26.512Z,17.70
2022-12-27T11:19:53.807Z,17.83
2022-12-27T11:22:20.654Z,19.20
2022-12-27T11:24:49.179Z,17.57
2022-12-27T11:27:29.453Z,18.87
2022-12-27T11:29:58.928Z,19.27
2022-12-27T11:32:25.797Z,19.73
2022-12-27T11:34:56.813Z,18.63
2022-12-27T11:37:27.327Z,20.13
2022-12-27T11:40:10.990Z,22.27
2022-12-27T11:42:43.187Z,21.57
2022-12-27T11:45:24.237Z,23.47
2022-12-27T11:48:12.905Z,24.27
2022-12-27T11:51:00.503Z,25.03
2022-12-27T11:54:12.024Z,22.47
2022-12-27T11:57:03.824Z,23.87
2022-12-27T11:59:37.989Z,22.57
2022-12-27T12:02:32.450Z,23.20
2022-12-27T12:05:07.977Z,22.77
2022-12-27T12:07:49.722Z,25.50
2022-12-27T12:10:37.633Z,24.37
2022-12-27T12:13:49.186Z,23.47
2022-12-27T12:16:21.445Z,19.17
2022-12-27T12:19:35.628Z,20.97
2022-12-27T12:22:30.074Z,20.03
2022-12-27T12:25:05.648Z,19.17
2022-12-27T12:27:54.678Z,21.63
2022-12-27T12:30:57.399Z,21.30
2022-12-27T12:33:45.261Z,21.23
2022-12-27T12:36:30.748Z,20.50
2022-12-27T12:39:18.912Z,14.00
2022-12-27T12:41:51.002Z,10.80
2022-12-27T12:44:54.846Z,10.17
2022-12-27T12:47:39.597Z,7.70
2022-12-27T12:50:21.175Z,4.97
2022-12-27T12:53:13.831Z,4.40
2022-12-27T12:55:55.455Z,2.77
2022-12-27T12:58:59.628Z,2.73
2022-12-27T13:01:53.736Z,2.93
2022-12-27T13:04:30.959Z,1.87
2022-12-27T13:07:11.119Z,2.27
2022-12-27T13:10:08.742Z,3.53
2022-12-27T13:12:54.464Z,2.07
2022-12-27T13:15:42.193Z,2.50
2022-12-27T13:18:41.192Z,1.87
2022-12-27T13:21:28.062Z,2.27
2022-12-27T13:24:12.262Z,2.10
2022-12-27T13:26:38.948Z,1.77
2022-12-27T13:29:43.331Z,2.80
2022-12-27T13:32:35.640Z,1.93
2022-12-27T13:35:44.101Z,2.30
2022-12-27T13:38:33.298Z,2.30
2022-12-27T13:41:10.761Z,2.07
2022-12-27T13:43:46.433Z,2.63
2022-12-27T13:46:13.114Z,2.17
2022-12-27T13:48:48.213Z,2.90
2022-12-27T13:51:36.474Z,2.90
2022-12-27T13:54:41.550Z,2.50
2022-12-27T13:57:53.005Z,3.43
2022-12-27T14:00:22.462Z,3.10
2022-12-27T14:03:19.687Z,3.53
2022-12-27T14:06:07.741Z,2.43
2022-12-27T14:08:34.326Z,3.27
2022-12-27T14:11:02.135Z,2.80
2022-12-27T14:13:36.786Z,2.37
2022-12-27T14:16:27.071Z,2.60
2022-12-27T14:19:13.999Z,3.97
2022-12-27T14:22:10.885Z,3.10
2022-12-27T14:25:28.923Z,3.53
2022-12-27T14:27:58.787Z,2.47
2022-12-27T14:30:46.964Z,3.27
2022-12-27T14:33:34.568Z,3.00
2022-12-27T14:36:13.228Z,3.30
2022-12-27T14:38:49.904Z,2.50
2022-12-27T14:41:28.587Z,3.00
2022-12-27T14:44:31.126Z,2.83
2022-12-27T14:47:36.371Z,2.90
2022-12-27T14:50:24.902Z,3.20
2022-12-27T14:53:26.706Z,2.90
2022-12-27T14:56:33.567Z,3.30
2022-12-27T14:59:26.866Z,3.17
2022-12-27T15:02:02.583Z,3.47
2022-12-27T15:04:49.266Z,3.30
2022-12-27T15:07:27.631Z,3.50
2022-12-27T15:10:33.708Z,3.13
2022-12-27T15:13:30.561Z,3.63
2022-12-27T15:15:59.826Z,3.47
2022-12-27T15:18:26.389Z,3.53
2022-12-27T15:21:25.125Z,4.50
2022-12-27T15:24:21.550Z,4.23
2022-12-27T15:27:20.357Z,4.00
2022-12-27T15:29:52.746Z,3.13
2022-12-27T15:32:32.925Z,3.27
2022-12-27T15:35:40.154Z,3.37
2022-12-27T15:38:14.346Z,3.80
2022-12-27T15:40:55.623Z,3.07
2022-12-27T15:43:44.090Z,4.53
2022-12-27T15:46:36.041Z,3.30
2022-12-27T15:49:40.480Z,4.13
2022-12-27T15:52:19.256Z,5.43
2022-12-27T15:55:06.228Z,4.37
2022-12-27T15:57:41.563Z,5.73
2022-12-27T16:00:15.800Z,3.00
2022-12-27T16:02:53.239Z,2.97
2022-12-27T16:05:19.866Z,4.63
2022-12-27T16:07:52.230Z,3.53
2022-12-27T16:10:30.771Z,3.33
2022-12-27T16:13:18.719Z,7.93
2022-12-27T16:15:47.803Z,5.47
2022-12-27T16:18:17.082Z,5.23
2022-12-27T16:21:05.798Z,3.53
2022-12-27T16:23:58.790Z,2.87
2022-12-27T16:26:32.482Z,4.33
2022-12-27T16:29:08.050Z,5.60
2022-12-27T16:31:41.860Z,35.40
2022-12-27T16:34:20.870Z,19.13
2022-12-27T16:36:49.906Z,12.23
2022-12-27T16:39:38.504Z,6.93
2022-12-27T16:42:08.353Z,6.37
2022-12-27T16:44:57.501Z,3.73
2022-12-27T16:47:40.166Z,3.90
2022-12-27T16:50:37.402Z,3.67
2022-12-27T16:53:41.044Z,2.77
2022-12-27T16:56:25.872Z,2.73
2022-12-27T16:58:52.709Z,5.70
2022-12-27T17:01:48.209Z,5.33
2022-12-27T17:04:50.070Z,6.03
2022-12-27T17:07:56.460Z,4.97
2022-12-27T17:10:28.810Z,4.93
2022-12-27T17:13:05.035Z,3.30
2022-12-27T17:15:32.363Z,3.40
2022-12-27T17:18:09.266Z,4.60
2022-12-27T17:20:38.243Z,4.40
2022-12-27T17:23:05.018Z,5.10
2022-12-27T17:26:00.404Z,4.63
2022-12-27T17:28:33.424Z,7.93
2022-12-27T17:31:08.135Z,5.17
2022-12-27T17:33:43.397Z,5.60
2022-12-27T17:36:26.690Z,4.80
2022-12-27T17:39:14.233Z,3.67
2022-12-27T17:42:09.526Z,2.47
2022-12-27T17:44:53.022Z,2.37
2022-12-27T17:47:41.457Z,1.80
2022-12-27T17:50:15.759Z,4.57
2022-12-27T17:53:41.310Z,3.70
2022-12-27T17:56:29.276Z,1.77
2022-12-27T17:59:13.419Z,1.93
2022-12-27T18:01:50.343Z,1.67
2022-12-27T18:04:29.287Z,1.53
2022-12-27T18:07:01.230Z,3.53
2022-12-27T18:09:47.384Z,4.97
2022-12-27T18:12:24.930Z,3.57
2022-12-27T18:14:59.390Z,2.63
2022-12-27T18:17:42.547Z,3.17
2022-12-27T18:20:30.425Z,2.00
2022-12-27T18:23:02.792Z,2.13
2022-12-27T18:25:44.635Z,7.37
2022-12-27T18:28:32.466Z,5.47
2022-12-27T18:31:12.561Z,3.50
2022-12-27T18:33:44.567Z,1.83
2022-12-27T18:36:19.711Z,1.40
2022-12-27T18:38:52.683Z,1.07
2022-12-27T18:41:21.674Z,1.00
2022-12-27T18:43:50.664Z,1.57
2022-12-27T18:46:36.711Z,2.23
2022-12-27T18:49:04.284Z,1.90
2022-12-27T18:51:37.177Z,2.30
2022-12-27T18:54:21.293Z,2.03
2022-12-27T18:56:52.426Z,1.93
2022-12-27T18:59:28.814Z,1.73
2022-12-27T19:01:58.502Z,1.30
2022-12-27T19:04:28.060Z,1.10
2022-12-27T19:07:00.600Z,1.20
2022-12-27T19:09:39.235Z,1.23
2022-12-27T19:12:19.119Z,1.93
2022-12-27T19:14:46.923Z,1.70
2022-12-27T19:17:39.730Z,2.33
2022-12-27T19:20:08.183Z,2.20
2022-12-27T19:22:48.719Z,3.03
2022-12-27T19:25:18.643Z,3.13
2022-12-27T19:28:05.807Z,3.50
2022-12-27T19:30:46.187Z,3.63
2022-12-27T19:33:14.625Z,11.73
2022-12-27T19:35:43.138Z,5.50
2022-12-27T19:38:18.717Z,3.10
2022-12-27T19:40:51.691Z,2.40
2022-12-27T19:43:19.228Z,1.87
2022-12-27T19:45:45.905Z,1.60
2022-12-27T19:48:12.682Z,1.87
2022-12-27T19:50:48.029Z,2.17
2022-12-27T19:53:21.041Z,1.67
2022-12-27T19:55:47.960Z,1.10
2022-12-27T19:58:21.563Z,1.50
2022-12-27T20:00:48.859Z,1.40
2022-12-27T20:03:16.492Z,2.30
2022-12-27T20:06:15.636Z,1.70
2022-12-27T20:08:40.373Z,1.90
2022-12-27T20:11:11.692Z,1.67
2022-12-27T20:13:38.317Z,2.20
2022-12-27T20:16:05.385Z,1.97
2022-12-27T20:18:31.982Z,1.70
2022-12-27T20:20:59.190Z,1.73
2022-12-27T20:23:25.995Z,2.70
2022-12-27T20:25:52.744Z,4.07
2022-12-27T20:28:19.424Z,5.77
2022-12-27T20:30:52.173Z,3.67
2022-12-27T20:33:18.761Z,3.87
2022-12-27T20:35:45.736Z,3.13
2022-12-27T20:38:12.476Z,3.47
2022-12-27T20:40:45.896Z,2.47
2022-12-27T20:43:12.586Z,2.67
2022-12-27T20:45:39.186Z,6.63
2022-12-27T20:48:06.005Z,10.73
2022-12-27T20:50:32.596Z,10.43
2022-12-27T20:52:59.275Z,9.33
2022-12-27T20:55:25.883Z,7.77
2022-12-27T20:57:52.541Z,3.93
2022-12-27T21:00:19.673Z,9.23
2022-12-27T21:02:59.311Z,3.33
2022-12-27T21:05:27.474Z,1.90
2022-12-27T21:07:59.891Z,7.20
2022-12-27T21:10:26.550Z,3.50
2022-12-27T21:12:53.175Z,2.17
2022-12-27T21:15:19.786Z,2.80
2022-12-27T21:17:46.390Z,2.13
2022-12-27T21:20:13.469Z,2.70
2022-12-27T21:22:40.114Z,2.73
2022-12-27T21:25:07.101Z,2.47
2022-12-27T21:27:33.736Z,3.17
2022-12-27T21:30:00.438Z,2.83
2022-12-27T21:32:27.083Z,2.83
2022-12-27T21:34:53.654Z,3.60
2022-12-27T21:37:20.929Z,2.27
2022-12-27T21:39:47.629Z,3.40
2022-12-27T21:42:14.572Z,2.53
2022-12-27T21:44:41.176Z,1.90
2022-12-27T21:47:07.874Z,2.37
2022-12-27T21:49:35.117Z,3.60
2022-12-27T21:52:02.182Z,3.20
2022-12-27T21:54:28.884Z,3.00
2022-12-27T21:56:55.495Z,3.00
2022-12-27T21:59:22.129Z,3.60
2022-12-27T22:01:51.964Z,2.73
2022-12-27T22:04:21.221Z,2.27
2022-12-27T22:06:48.204Z,3.33
2022-12-27T22:09:15.262Z,7.33
2022-12-27T22:11:45.781Z,15.70
2022-12-27T22:14:12.342Z,4.33
2022-12-27T22:16:39.723Z,2.90
2022-12-27T22:19:11.364Z,4.80
2022-12-27T22:21:39.919Z,3.20
2022-12-27T22:24:07.087Z,3.60
2022-12-27T22:26:40.581Z,2.63
2022-12-27T22:29:12.487Z,2.93
2022-12-27T22:31:40.513Z,3.30
2022-12-27T22:34:07.201Z,2.80
2022-12-27T22:36:35.005Z,3.30
2022-12-27T22:39:06.039Z,3.60
2022-12-27T22:41:38.110Z,2.77
2022-12-27T22:44:11.509Z,2.73
2022-12-27T22:47:07.066Z,2.70
2022-12-27T22:49:26.197Z,3.50
2022-12-27T22:51:52.875Z,3.30
2022-12-27T22:54:19.536Z,3.50
2022-12-27T22:56:46.124Z,4.80
2022-12-27T22:59:15.133Z,3.43
2022-12-27T23:01:43.203Z,3.53
2022-12-27T23:04:12.676Z,4.50
2022-12-27T23:06:40.377Z,3.93
2022-12-27T23:09:07.116Z,3.43
2022-12-27T23:11:46.521Z,3.50
2022-12-27T23:14:20.707Z,5.90
2022-12-27T23:16:49.459Z,6.47
2022-12-27T23:19:19.530Z,3.97
2022-12-27T23:21:46.899Z,4.17
2022-12-27T23:24:13.704Z,3.00
2022-12-27T23:26:41.202Z,2.70
2022-12-27T23:29:08.009Z,4.53
2022-12-27T23:31:34.757Z,2.90
2022-12-27T23:34:02.158Z,4.27
2022-12-27T23:36:30.996Z,6.70
2022-12-27T23:38:57.690Z,3.33
2022-12-27T23:41:25.747Z,2.90
2022-12-27T23:43:58.561Z,2.57
2022-12-27T23:46:31.573Z,3.27
2022-12-27T23:49:01.146Z,4.10
2022-12-27T23:51:29.271Z,3.73
2022-12-27T23:53:56.483Z,3.80
2022-12-27T23:56:26.169Z,3.20
2022-12-27T23:58:58.724Z,3.30
